Terminal Aerodrome Forecast
Issued by NWS Mt. Holly, NJ

Home | Current Version | Previous Version | Text Only | Print | Product List | Glossary On
Versions: 1 2 3 4 5 6 7 8 9 10 11 12 13 14 15 16 17 18 19 20 21 22 23 24 25 26 27 28 29 30
000
FTUS41 KPHI 291134 CCA
TAFTTN
TAF COR
KTTN 291134Z 2912/3012 VRB03KT 6SM BR SCT003 BKN150
      TEMPO 2912/2913 3SM BR BKN003
     FM291300 26008KT P6SM -SHRA SCT050 BKN150
     FM291700 28012G18KT P6SM SCT050 BKN150
     FM292200 32006KT P6SM -SHRA SCT050 BKN150 PROB30 2923/3001 4SM
      TSRA BKN050CB
     FM300300 01004KT P6SM BKN150
     FM300500 03004KT 5SM BR OVC015=

USA.gov is the U.S. government's official web portal to all federal, state and local government web resources and services.